sensor_id;sensor_type;location;lat;lon;timestamp;temperature;humidity
12335;DHT22;6233;51.560;9.986;2022-11-27T00:01:13;5.60;99.90
12335;DHT22;6233;51.560;9.986;2022-11-27T00:04:15;5.60;99.90
12335;DHT22;6233;51.560;9.986;2022-11-27T00:07:17;5.50;99.90
12335;DHT22;6233;51.560;9.986;2022-11-27T00:10:19;5.50;99.90
12335;DHT22;6233;51.560;9.986;2022-11-27T00:13:20;5.50;99.90
12335;DHT22;6233;51.560;9.986;2022-11-27T00:16:23;5.50;99.90
12335;DHT22;6233;51.560;9.986;2022-11-27T00:19:25;5.50;99.90
12335;DHT22;6233;51.560;9.986;2022-11-27T00:22:27;5.50;99.90
12335;DHT22;6233;51.560;9.986;2022-11-27T00:25:29;5.50;99.90
12335;DHT22;6233;51.560;9.986;2022-11-27T00:28:31;5.50;99.90
12335;DHT22;6233;51.560;9.986;2022-11-27T00:31:34;5.40;99.90
12335;DHT22;6233;51.560;9.986;2022-11-27T00:34:38;5.40;99.90
12335;DHT22;6233;51.560;9.986;2022-11-27T00:37:39;5.40;99.90
12335;DHT22;6233;51.560;9.986;2022-11-27T00:40:41;5.40;99.90
12335;DHT22;6233;51.560;9.986;2022-11-27T00:43:43;5.40;99.90
12335;DHT22;6233;51.560;9.986;2022-11-27T00:46:46;5.40;99.90
12335;DHT22;6233;51.560;9.986;2022-11-27T00:49:48;5.40;99.90
12335;DHT22;6233;51.560;9.986;2022-11-27T00:52:49;5.40;99.90
12335;DHT22;6233;51.560;9.986;2022-11-27T00:55:51;5.40;99.90
12335;DHT22;6233;51.560;9.986;2022-11-27T00:58:53;5.30;99.90
12335;DHT22;6233;51.560;9.986;2022-11-27T01:01:55;5.30;99.90
12335;DHT22;6233;51.560;9.986;2022-11-27T01:04:56;5.20;99.90
12335;DHT22;6233;51.560;9.986;2022-11-27T01:08:01;5.20;99.90
12335;DHT22;6233;51.560;9.986;2022-11-27T01:11:03;5.20;99.90
12335;DHT22;6233;51.560;9.986;2022-11-27T01:14:10;5.10;99.90
12335;DHT22;6233;51.560;9.986;2022-11-27T01:17:12;5.10;99.90
12335;DHT22;6233;51.560;9.986;2022-11-27T01:20:14;5.20;99.90
12335;DHT22;6233;51.560;9.986;2022-11-27T01:23:15;5.20;99.90
12335;DHT22;6233;51.560;9.986;2022-11-27T01:26:18;5.20;99.90
12335;DHT22;6233;51.560;9.986;2022-11-27T01:29:20;5.20;99.90
12335;DHT22;6233;51.560;9.986;2022-11-27T01:32:21;5.20;99.90
12335;DHT22;6233;51.560;9.986;2022-11-27T01:35:23;5.20;99.90
12335;DHT22;6233;51.560;9.986;2022-11-27T01:38:26;5.20;99.90
12335;DHT22;6233;51.560;9.986;2022-11-27T01:41:30;5.20;99.90
12335;DHT22;6233;51.560;9.986;2022-11-27T01:47:44;5.20;99.90
12335;DHT22;6233;51.560;9.986;2022-11-27T01:50:47;5.20;99.90
12335;DHT22;6233;51.560;9.986;2022-11-27T01:53:50;5.30;99.90
12335;DHT22;6233;51.560;9.986;2022-11-27T01:56:55;5.20;99.90
12335;DHT22;6233;51.560;9.986;2022-11-27T02:00:28;5.30;99.90
12335;DHT22;6233;51.560;9.986;2022-11-27T02:03:31;5.30;99.90
12335;DHT22;6233;51.560;9.986;2022-11-27T02:06:33;5.30;99.90
12335;DHT22;6233;51.560;9.986;2022-11-27T02:09:35;5.30;99.90
12335;DHT22;6233;51.560;9.986;2022-11-27T02:12:57;5.30;99.90
12335;DHT22;6233;51.560;9.986;2022-11-27T02:29:44;5.30;99.90
12335;DHT22;6233;51.560;9.986;2022-11-27T02:32:58;5.30;99.90
12335;DHT22;6233;51.560;9.986;2022-11-27T02:36:15;5.30;99.90
12335;DHT22;6233;51.560;9.986;2022-11-27T02:39:24;5.30;99.90
12335;DHT22;6233;51.560;9.986;2022-11-27T02:42:31;5.30;99.90
12335;DHT22;6233;51.560;9.986;2022-11-27T02:45:38;5.30;99.90
12335;DHT22;6233;51.560;9.986;2022-11-27T02:49:04;5.20;99.90
12335;DHT22;6233;51.560;9.986;2022-11-27T02:52:08;5.20;99.90
12335;DHT22;6233;51.560;9.986;2022-11-27T02:55:14;5.10;99.90
12335;DHT22;6233;51.560;9.986;2022-11-27T02:58:20;5.10;99.90
12335;DHT22;6233;51.560;9.986;2022-11-27T03:01:22;5.20;99.90
12335;DHT22;6233;51.560;9.986;2022-11-27T03:04:30;5.20;99.90
12335;DHT22;6233;51.560;9.986;2022-11-27T03:11:15;5.20;99.90
12335;DHT22;6233;51.560;9.986;2022-11-27T03:14:18;5.10;99.90
12335;DHT22;6233;51.560;9.986;2022-11-27T03:20:46;5.10;99.90
12335;DHT22;6233;51.560;9.986;2022-11-27T03:23:49;5.10;99.90
12335;DHT22;6233;51.560;9.986;2022-11-27T03:26:51;5.00;99.90
12335;DHT22;6233;51.560;9.986;2022-11-27T03:30:02;5.00;99.90
12335;DHT22;6233;51.560;9.986;2022-11-27T03:33:04;4.90;99.90
12335;DHT22;6233;51.560;9.986;2022-11-27T03:36:15;4.90;99.90
12335;DHT22;6233;51.560;9.986;2022-11-27T03:39:18;4.90;99.90
12335;DHT22;6233;51.560;9.986;2022-11-27T03:52:43;4.70;99.90
12335;DHT22;6233;51.560;9.986;2022-11-27T03:56:00;4.70;99.90
12335;DHT22;6233;51.560;9.986;2022-11-27T03:59:24;4.60;99.90
12335;DHT22;6233;51.560;9.986;2022-11-27T04:02:39;4.60;99.90
12335;DHT22;6233;51.560;9.986;2022-11-27T04:05:41;4.60;99.90
12335;DHT22;6233;51.560;9.986;2022-11-27T04:08:44;4.50;99.90
12335;DHT22;6233;51.560;9.986;2022-11-27T04:11:47;4.50;99.90
12335;DHT22;6233;51.560;9.986;2022-11-27T04:14:48;4.50;99.90
12335;DHT22;6233;51.560;9.986;2022-11-27T04:17:50;4.40;99.90
12335;DHT22;6233;51.560;9.986;2022-11-27T04:20:52;4.40;99.90
12335;DHT22;6233;51.560;9.986;2022-11-27T04:23:55;4.40;99.90
12335;DHT22;6233;51.560;9.986;2022-11-27T04:26:57;4.30;99.90
12335;DHT22;6233;51.560;9.986;2022-11-27T04:29:58;4.30;99.90
12335;DHT22;6233;51.560;9.986;2022-11-27T04:33:03;4.30;99.90
12335;DHT22;6233;51.560;9.986;2022-11-27T04:36:05;4.30;99.90
12335;DHT22;6233;51.560;9.986;2022-11-27T04:39:07;4.30;99.90
12335;DHT22;6233;51.560;9.986;2022-11-27T04:42:08;4.20;99.90
12335;DHT22;6233;51.560;9.986;2022-11-27T04:45:10;4.20;99.90
12335;DHT22;6233;51.560;9.986;2022-11-27T04:48:12;4.10;99.90
12335;DHT22;6233;51.560;9.986;2022-11-27T04:51:14;4.10;99.90
12335;DHT22;6233;51.560;9.986;2022-11-27T04:54:16;4.10;99.90
12335;DHT22;6233;51.560;9.986;2022-11-27T04:57:18;4.10;99.90
12335;DHT22;6233;51.560;9.986;2022-11-27T05:00:20;4.00;99.90
12335;DHT22;6233;51.560;9.986;2022-11-27T05:03:21;4.00;99.90
12335;DHT22;6233;51.560;9.986;2022-11-27T05:06:23;4.00;99.90
12335;DHT22;6233;51.560;9.986;2022-11-27T05:09:25;3.90;99.90
12335;DHT22;6233;51.560;9.986;2022-11-27T05:12:27;3.90;99.90
12335;DHT22;6233;51.560;9.986;2022-11-27T05:15:28;3.90;99.90
12335;DHT22;6233;51.560;9.986;2022-11-27T05:18:30;3.90;99.90
12335;DHT22;6233;51.560;9.986;2022-11-27T05:21:32;3.80;99.90
12335;DHT22;6233;51.560;9.986;2022-11-27T05:24:34;3.80;99.90
12335;DHT22;6233;51.560;9.986;2022-11-27T05:27:35;3.80;99.90
12335;DHT22;6233;51.560;9.986;2022-11-27T05:30:37;3.70;99.90
12335;DHT22;6233;51.560;9.986;2022-11-27T05:33:39;3.70;99.90
12335;DHT22;6233;51.560;9.986;2022-11-27T05:36:41;3.70;99.90
12335;DHT22;6233;51.560;9.986;2022-11-27T05:39:43;3.60;99.90
12335;DHT22;6233;51.560;9.986;2022-11-27T05:42:45;3.60;99.90
12335;DHT22;6233;51.560;9.986;2022-11-27T05:45:46;3.60;99.90
12335;DHT22;6233;51.560;9.986;2022-11-27T05:48:48;3.60;99.90
12335;DHT22;6233;51.560;9.986;2022-11-27T05:51:50;3.50;99.90
12335;DHT22;6233;51.560;9.986;2022-11-27T05:54:52;3.60;99.90
12335;DHT22;6233;51.560;9.986;2022-11-27T05:57:55;3.50;99.90
12335;DHT22;6233;51.560;9.986;2022-11-27T06:00:57;3.50;99.90
12335;DHT22;6233;51.560;9.986;2022-11-27T06:03:59;3.50;99.90
12335;DHT22;6233;51.560;9.986;2022-11-27T06:07:03;3.50;99.90
12335;DHT22;6233;51.560;9.986;2022-11-27T06:10:05;3.60;99.90
12335;DHT22;6233;51.560;9.986;2022-11-27T06:13:07;3.60;99.90
12335;DHT22;6233;51.560;9.986;2022-11-27T06:16:15;3.60;99.90
12335;DHT22;6233;51.560;9.986;2022-11-27T06:19:17;3.60;99.90
12335;DHT22;6233;51.560;9.986;2022-11-27T06:22:19;3.70;99.90
12335;DHT22;6233;51.560;9.986;2022-11-27T06:25:21;3.70;99.90
12335;DHT22;6233;51.560;9.986;2022-11-27T06:28:23;3.70;99.90
12335;DHT22;6233;51.560;9.986;2022-11-27T06:31:27;3.80;99.90
12335;DHT22;6233;51.560;9.986;2022-11-27T06:34:29;3.80;99.90
12335;DHT22;6233;51.560;9.986;2022-11-27T06:37:32;3.80;99.90
12335;DHT22;6233;51.560;9.986;2022-11-27T06:40:34;3.80;99.90
12335;DHT22;6233;51.560;9.986;2022-11-27T06:43:36;3.90;99.90
12335;DHT22;6233;51.560;9.986;2022-11-27T06:46:38;3.90;99.90
12335;DHT22;6233;51.560;9.986;2022-11-27T06:49:40;3.90;99.90
12335;DHT22;6233;51.560;9.986;2022-11-27T06:52:42;3.90;99.90
12335;DHT22;6233;51.560;9.986;2022-11-27T06:55:47;3.90;99.90
12335;DHT22;6233;51.560;9.986;2022-11-27T06:58:56;4.00;99.90
12335;DHT22;6233;51.560;9.986;2022-11-27T07:01:58;4.00;99.90
12335;DHT22;6233;51.560;9.986;2022-11-27T07:05:02;4.00;99.90
12335;DHT22;6233;51.560;9.986;2022-11-27T07:08:04;3.90;99.90
12335;DHT22;6233;51.560;9.986;2022-11-27T07:11:09;3.90;99.90
12335;DHT22;6233;51.560;9.986;2022-11-27T07:14:12;3.90;99.90
12335;DHT22;6233;51.560;9.986;2022-11-27T07:17:13;3.80;99.90
12335;DHT22;6233;51.560;9.986;2022-11-27T07:20:15;3.80;99.90
12335;DHT22;6233;51.560;9.986;2022-11-27T07:23:17;3.80;99.90
12335;DHT22;6233;51.560;9.986;2022-11-27T07:26:26;3.90;99.90
12335;DHT22;6233;51.560;9.986;2022-11-27T07:29:28;3.90;99.90
12335;DHT22;6233;51.560;9.986;2022-11-27T07:32:30;3.90;99.90
12335;DHT22;6233;51.560;9.986;2022-11-27T07:35:32;4.00;99.90
12335;DHT22;6233;51.560;9.986;2022-11-27T07:38:37;4.00;99.90
12335;DHT22;6233;51.560;9.986;2022-11-27T07:41:58;4.10;99.90
12335;DHT22;6233;51.560;9.986;2022-11-27T07:45:20;4.10;99.90
12335;DHT22;6233;51.560;9.986;2022-11-27T07:48:22;4.10;99.90
12335;DHT22;6233;51.560;9.986;2022-11-27T07:51:24;4.20;99.90
12335;DHT22;6233;51.560;9.986;2022-11-27T07:54:26;4.30;99.90
12335;DHT22;6233;51.560;9.986;2022-11-27T07:57:27;4.40;99.90
12335;DHT22;6233;51.560;9.986;2022-11-27T08:00:29;4.50;99.90
12335;DHT22;6233;51.560;9.986;2022-11-27T08:03:31;4.70;99.90
12335;DHT22;6233;51.560;9.986;2022-11-27T08:06:33;4.80;99.90
12335;DHT22;6233;51.560;9.986;2022-11-27T08:09:34;4.90;99.90
12335;DHT22;6233;51.560;9.986;2022-11-27T08:12:36;5.00;99.90
12335;DHT22;6233;51.560;9.986;2022-11-27T08:15:38;5.10;99.90
12335;DHT22;6233;51.560;9.986;2022-11-27T08:18:40;5.30;99.90
12335;DHT22;6233;51.560;9.986;2022-11-27T08:21:41;5.40;99.90
12335;DHT22;6233;51.560;9.986;2022-11-27T08:24:43;5.50;99.90
12335;DHT22;6233;51.560;9.986;2022-11-27T08:27:45;5.70;99.90
12335;DHT22;6233;51.560;9.986;2022-11-27T08:31:00;5.80;99.90
12335;DHT22;6233;51.560;9.986;2022-11-27T08:34:02;6.00;99.90
12335;DHT22;6233;51.560;9.986;2022-11-27T08:37:05;6.20;99.90
12335;DHT22;6233;51.560;9.986;2022-11-27T08:40:13;6.30;99.90
12335;DHT22;6233;51.560;9.986;2022-11-27T08:43:15;6.50;99.90
12335;DHT22;6233;51.560;9.986;2022-11-27T08:46:17;6.70;99.90
12335;DHT22;6233;51.560;9.986;2022-11-27T08:49:18;6.90;99.90
12335;DHT22;6233;51.560;9.986;2022-11-27T08:52:20;7.10;99.90
12335;DHT22;6233;51.560;9.986;2022-11-27T08:55:22;7.30;99.90
12335;DHT22;6233;51.560;9.986;2022-11-27T08:58:25;7.50;99.90
12335;DHT22;6233;51.560;9.986;2022-11-27T09:01:28;7.60;99.90
12335;DHT22;6233;51.560;9.986;2022-11-27T09:04:31;7.70;99.90
12335;DHT22;6233;51.560;9.986;2022-11-27T09:07:32;7.70;99.90
12335;DHT22;6233;51.560;9.986;2022-11-27T09:10:35;7.70;99.90
12335;DHT22;6233;51.560;9.986;2022-11-27T09:13:37;7.60;99.90
12335;DHT22;6233;51.560;9.986;2022-11-27T09:16:40;7.40;99.90
12335;DHT22;6233;51.560;9.986;2022-11-27T09:19:42;7.30;99.90
12335;DHT22;6233;51.560;9.986;2022-11-27T09:22:44;7.30;99.90
12335;DHT22;6233;51.560;9.986;2022-11-27T09:25:45;7.30;99.90
12335;DHT22;6233;51.560;9.986;2022-11-27T09:28:47;7.20;99.90
12335;DHT22;6233;51.560;9.986;2022-11-27T09:31:49;7.10;99.90
12335;DHT22;6233;51.560;9.986;2022-11-27T09:34:51;7.00;99.90
12335;DHT22;6233;51.560;9.986;2022-11-27T09:37:53;7.00;99.90
12335;DHT22;6233;51.560;9.986;2022-11-27T09:41:03;7.20;99.90
12335;DHT22;6233;51.560;9.986;2022-11-27T09:44:29;7.30;99.90
12335;DHT22;6233;51.560;9.986;2022-11-27T09:50:46;7.40;99.90
12335;DHT22;6233;51.560;9.986;2022-11-27T09:54:09;7.30;99.90
12335;DHT22;6233;51.560;9.986;2022-11-27T09:57:35;7.30;99.90
12335;DHT22;6233;51.560;9.986;2022-11-27T10:00:38;7.20;99.90
12335;DHT22;6233;51.560;9.986;2022-11-27T10:03:40;7.30;99.90
12335;DHT22;6233;51.560;9.986;2022-11-27T10:07:11;7.40;99.90
12335;DHT22;6233;51.560;9.986;2022-11-27T10:10:40;7.50;99.90
12335;DHT22;6233;51.560;9.986;2022-11-27T10:23:58;8.00;99.90
12335;DHT22;6233;51.560;9.986;2022-11-27T10:27:52;8.10;99.90
12335;DHT22;6233;51.560;9.986;2022-11-27T10:30:38;8.10;99.90
12335;DHT22;6233;51.560;9.986;2022-11-27T10:33:55;8.20;99.90
12335;DHT22;6233;51.560;9.986;2022-11-27T10:37:00;8.20;99.90
12335;DHT22;6233;51.560;9.986;2022-11-27T10:40:19;8.10;99.90
12335;DHT22;6233;51.560;9.986;2022-11-27T10:43:24;8.10;99.90
12335;DHT22;6233;51.560;9.986;2022-11-27T10:46:29;8.10;99.90
12335;DHT22;6233;51.560;9.986;2022-11-27T10:49:41;8.00;99.90
12335;DHT22;6233;51.560;9.986;2022-11-27T10:52:54;8.10;99.90
12335;DHT22;6233;51.560;9.986;2022-11-27T11:00:03;8.10;99.90
12335;DHT22;6233;51.560;9.986;2022-11-27T11:02:45;8.20;99.90
12335;DHT22;6233;51.560;9.986;2022-11-27T11:06:05;8.20;99.90
12335;DHT22;6233;51.560;9.986;2022-11-27T11:09:29;8.10;99.90
12335;DHT22;6233;51.560;9.986;2022-11-27T11:12:31;8.20;99.90
12335;DHT22;6233;51.560;9.986;2022-11-27T11:15:33;8.10;99.90
12335;DHT22;6233;51.560;9.986;2022-11-27T11:18:44;8.00;99.90
12335;DHT22;6233;51.560;9.986;2022-11-27T11:21:46;7.90;99.90
12335;DHT22;6233;51.560;9.986;2022-11-27T11:24:50;7.90;99.90
12335;DHT22;6233;51.560;9.986;2022-11-27T11:27:52;7.90;99.90
12335;DHT22;6233;51.560;9.986;2022-11-27T11:31:01;8.00;99.90
12335;DHT22;6233;51.560;9.986;2022-11-27T11:34:21;8.00;99.90
12335;DHT22;6233;51.560;9.986;2022-11-27T11:37:31;8.00;99.90
12335;DHT22;6233;51.560;9.986;2022-11-27T11:40:35;8.10;99.90
12335;DHT22;6233;51.560;9.986;2022-11-27T11:43:51;8.10;99.90
12335;DHT22;6233;51.560;9.986;2022-11-27T11:46:54;8.10;99.90
12335;DHT22;6233;51.560;9.986;2022-11-27T11:49:55;8.10;99.90
12335;DHT22;6233;51.560;9.986;2022-11-27T11:53:11;8.10;99.90
12335;DHT22;6233;51.560;9.986;2022-11-27T11:56:37;8.10;99.90
12335;DHT22;6233;51.560;9.986;2022-11-27T12:09:42;7.90;99.90
12335;DHT22;6233;51.560;9.986;2022-11-27T12:16:44;7.80;99.90
12335;DHT22;6233;51.560;9.986;2022-11-27T12:33:01;7.80;99.90
12335;DHT22;6233;51.560;9.986;2022-11-27T12:46:40;7.60;99.90
12335;DHT22;6233;51.560;9.986;2022-11-27T12:49:49;7.60;99.90
12335;DHT22;6233;51.560;9.986;2022-11-27T12:53:18;7.60;99.90
12335;DHT22;6233;51.560;9.986;2022-11-27T12:56:43;7.60;99.90
12335;DHT22;6233;51.560;9.986;2022-11-27T12:59:56;7.60;99.90
12335;DHT22;6233;51.560;9.986;2022-11-27T13:03:26;7.50;99.90
12335;DHT22;6233;51.560;9.986;2022-11-27T13:06:31;7.40;99.90
12335;DHT22;6233;51.560;9.986;2022-11-27T13:09:41;7.30;99.90
12335;DHT22;6233;51.560;9.986;2022-11-27T13:16:29;7.30;99.90
12335;DHT22;6233;51.560;9.986;2022-11-27T13:19:46;7.40;99.90
12335;DHT22;6233;51.560;9.986;2022-11-27T13:22:49;7.40;99.90
12335;DHT22;6233;51.560;9.986;2022-11-27T13:25:53;7.40;99.90
12335;DHT22;6233;51.560;9.986;2022-11-27T13:29:02;7.40;99.90
12335;DHT22;6233;51.560;9.986;2022-11-27T13:32:05;7.30;99.90
12335;DHT22;6233;51.560;9.986;2022-11-27T13:38:28;7.40;99.90
12335;DHT22;6233;51.560;9.986;2022-11-27T13:41:37;7.30;99.90
12335;DHT22;6233;51.560;9.986;2022-11-27T13:44:43;7.30;99.90
12335;DHT22;6233;51.560;9.986;2022-11-27T13:47:46;7.40;99.90
12335;DHT22;6233;51.560;9.986;2022-11-27T13:50:53;7.40;99.90
12335;DHT22;6233;51.560;9.986;2022-11-27T13:57:16;7.40;99.90
12335;DHT22;6233;51.560;9.986;2022-11-27T14:00:36;7.30;99.90
12335;DHT22;6233;51.560;9.986;2022-11-27T14:03:39;7.30;99.90
12335;DHT22;6233;51.560;9.986;2022-11-27T14:06:58;7.30;99.90
12335;DHT22;6233;51.560;9.986;2022-11-27T14:10:14;7.20;99.90
12335;DHT22;6233;51.560;9.986;2022-11-27T14:13:16;7.10;99.90
12335;DHT22;6233;51.560;9.986;2022-11-27T14:16:27;7.10;99.90
12335;DHT22;6233;51.560;9.986;2022-11-27T14:19:40;7.10;99.90
12335;DHT22;6233;51.560;9.986;2022-11-27T14:22:52;7.10;99.90
12335;DHT22;6233;51.560;9.986;2022-11-27T14:29:22;7.00;99.90
12335;DHT22;6233;51.560;9.986;2022-11-27T14:32:34;7.00;99.90
12335;DHT22;6233;51.560;9.986;2022-11-27T14:35:36;6.90;99.90
12335;DHT22;6233;51.560;9.986;2022-11-27T14:38:38;6.90;99.90
12335;DHT22;6233;51.560;9.986;2022-11-27T14:41:39;6.80;99.90
12335;DHT22;6233;51.560;9.986;2022-11-27T14:44:41;6.80;99.90
12335;DHT22;6233;51.560;9.986;2022-11-27T14:47:48;6.80;99.90
12335;DHT22;6233;51.560;9.986;2022-11-27T14:50:53;6.80;99.90
12335;DHT22;6233;51.560;9.986;2022-11-27T14:54:01;6.80;99.90
12335;DHT22;6233;51.560;9.986;2022-11-27T14:57:05;6.70;99.90
12335;DHT22;6233;51.560;9.986;2022-11-27T15:00:14;6.70;99.90
12335;DHT22;6233;51.560;9.986;2022-11-27T15:03:16;6.70;99.90
12335;DHT22;6233;51.560;9.986;2022-11-27T15:06:19;6.70;99.90
12335;DHT22;6233;51.560;9.986;2022-11-27T15:09:24;6.70;99.90
12335;DHT22;6233;51.560;9.986;2022-11-27T15:12:36;6.60;99.90
12335;DHT22;6233;51.560;9.986;2022-11-27T15:15:42;6.60;99.90
12335;DHT22;6233;51.560;9.986;2022-11-27T15:18:48;6.50;99.90
12335;DHT22;6233;51.560;9.986;2022-11-27T15:21:52;6.50;99.90
12335;DHT22;6233;51.560;9.986;2022-11-27T15:25:27;6.40;99.90
12335;DHT22;6233;51.560;9.986;2022-11-27T15:28:39;6.40;99.90
12335;DHT22;6233;51.560;9.986;2022-11-27T15:31:50;6.40;99.90
12335;DHT22;6233;51.560;9.986;2022-11-27T15:34:52;6.40;99.90
12335;DHT22;6233;51.560;9.986;2022-11-27T15:37:57;6.40;99.90
12335;DHT22;6233;51.560;9.986;2022-11-27T15:41:24;6.40;99.90
12335;DHT22;6233;51.560;9.986;2022-11-27T15:44:28;6.40;99.90
12335;DHT22;6233;51.560;9.986;2022-11-27T15:47:34;6.40;99.90
12335;DHT22;6233;51.560;9.986;2022-11-27T15:50:36;6.40;99.90
12335;DHT22;6233;51.560;9.986;2022-11-27T15:53:38;6.40;99.90
12335;DHT22;6233;51.560;9.986;2022-11-27T15:56:40;6.40;99.90
12335;DHT22;6233;51.560;9.986;2022-11-27T15:59:42;6.40;99.90
12335;DHT22;6233;51.560;9.986;2022-11-27T16:02:43;6.30;99.90
12335;DHT22;6233;51.560;9.986;2022-11-27T16:05:45;6.40;99.90
12335;DHT22;6233;51.560;9.986;2022-11-27T16:08:51;6.40;99.90
12335;DHT22;6233;51.560;9.986;2022-11-27T16:11:53;6.40;99.90
12335;DHT22;6233;51.560;9.986;2022-11-27T16:14:54;6.30;99.90
12335;DHT22;6233;51.560;9.986;2022-11-27T16:17:56;6.40;99.90
12335;DHT22;6233;51.560;9.986;2022-11-27T16:21:06;6.30;99.90
12335;DHT22;6233;51.560;9.986;2022-11-27T16:24:11;6.30;99.90
12335;DHT22;6233;51.560;9.986;2022-11-27T16:27:14;6.30;99.90
12335;DHT22;6233;51.560;9.986;2022-11-27T16:30:15;6.30;99.90
12335;DHT22;6233;51.560;9.986;2022-11-27T16:33:20;6.30;99.90
12335;DHT22;6233;51.560;9.986;2022-11-27T16:36:22;6.20;99.90
12335;DHT22;6233;51.560;9.986;2022-11-27T16:39:24;6.30;99.90
12335;DHT22;6233;51.560;9.986;2022-11-27T16:42:28;6.20;99.90
12335;DHT22;6233;51.560;9.986;2022-11-27T16:45:29;6.20;99.90
12335;DHT22;6233;51.560;9.986;2022-11-27T16:48:32;6.20;99.90
12335;DHT22;6233;51.560;9.986;2022-11-27T16:51:36;6.20;99.90
12335;DHT22;6233;51.560;9.986;2022-11-27T16:54:38;6.10;99.90
12335;DHT22;6233;51.560;9.986;2022-11-27T16:57:40;6.20;99.90
12335;DHT22;6233;51.560;9.986;2022-11-27T17:00:42;6.10;99.90
12335;DHT22;6233;51.560;9.986;2022-11-27T17:03:54;6.10;99.90
12335;DHT22;6233;51.560;9.986;2022-11-27T17:06:56;6.10;99.90
12335;DHT22;6233;51.560;9.986;2022-11-27T17:09:58;6.10;99.90
12335;DHT22;6233;51.560;9.986;2022-11-27T17:13:00;6.10;99.90
12335;DHT22;6233;51.560;9.986;2022-11-27T17:16:02;6.10;99.90
12335;DHT22;6233;51.560;9.986;2022-11-27T17:19:04;6.10;99.90
12335;DHT22;6233;51.560;9.986;2022-11-27T17:22:06;6.10;99.90
12335;DHT22;6233;51.560;9.986;2022-11-27T17:25:07;6.10;99.90
12335;DHT22;6233;51.560;9.986;2022-11-27T17:28:11;6.10;99.90
12335;DHT22;6233;51.560;9.986;2022-11-27T17:31:18;6.10;99.90
12335;DHT22;6233;51.560;9.986;2022-11-27T17:34:20;6.00;99.90
12335;DHT22;6233;51.560;9.986;2022-11-27T17:37:22;6.00;99.90
12335;DHT22;6233;51.560;9.986;2022-11-27T17:40:24;5.90;99.90
12335;DHT22;6233;51.560;9.986;2022-11-27T17:43:45;5.90;99.90
12335;DHT22;6233;51.560;9.986;2022-11-27T17:46:51;5.90;99.90
12335;DHT22;6233;51.560;9.986;2022-11-27T17:49:52;5.90;99.90
12335;DHT22;6233;51.560;9.986;2022-11-27T17:52:54;5.90;99.90
12335;DHT22;6233;51.560;9.986;2022-11-27T17:56:01;5.90;99.90
12335;DHT22;6233;51.560;9.986;2022-11-27T17:59:03;6.00;99.90
12335;DHT22;6233;51.560;9.986;2022-11-27T18:02:05;6.00;99.90
12335;DHT22;6233;51.560;9.986;2022-11-27T18:05:07;6.00;99.90
12335;DHT22;6233;51.560;9.986;2022-11-27T18:08:09;6.00;99.90
12335;DHT22;6233;51.560;9.986;2022-11-27T18:11:13;5.90;99.90
12335;DHT22;6233;51.560;9.986;2022-11-27T18:14:15;5.90;99.90
12335;DHT22;6233;51.560;9.986;2022-11-27T18:17:25;5.90;99.90
12335;DHT22;6233;51.560;9.986;2022-11-27T18:24:49;5.80;99.90
12335;DHT22;6233;51.560;9.986;2022-11-27T18:27:51;5.80;99.90
12335;DHT22;6233;51.560;9.986;2022-11-27T18:30:52;5.70;99.90
12335;DHT22;6233;51.560;9.986;2022-11-27T18:33:55;5.70;99.90
12335;DHT22;6233;51.560;9.986;2022-11-27T18:36:58;5.70;99.90
12335;DHT22;6233;51.560;9.986;2022-11-27T18:40:02;5.80;99.90
12335;DHT22;6233;51.560;9.986;2022-11-27T18:43:04;5.80;99.90
12335;DHT22;6233;51.560;9.986;2022-11-27T18:46:18;5.80;99.90
12335;DHT22;6233;51.560;9.986;2022-11-27T18:49:20;5.80;99.90
12335;DHT22;6233;51.560;9.986;2022-11-27T18:52:23;5.80;99.90
12335;DHT22;6233;51.560;9.986;2022-11-27T18:55:25;5.70;99.90
12335;DHT22;6233;51.560;9.986;2022-11-27T18:58:27;5.70;99.90
12335;DHT22;6233;51.560;9.986;2022-11-27T19:01:33;5.80;99.90
12335;DHT22;6233;51.560;9.986;2022-11-27T19:04:42;5.70;99.90
12335;DHT22;6233;51.560;9.986;2022-11-27T19:07:45;5.70;99.90
12335;DHT22;6233;51.560;9.986;2022-11-27T19:11:20;5.70;99.90
12335;DHT22;6233;51.560;9.986;2022-11-27T19:14:22;5.70;99.90
12335;DHT22;6233;51.560;9.986;2022-11-27T19:17:23;5.60;99.90
12335;DHT22;6233;51.560;9.986;2022-11-27T19:20:35;5.60;99.90
12335;DHT22;6233;51.560;9.986;2022-11-27T19:23:37;5.50;99.90
12335;DHT22;6233;51.560;9.986;2022-11-27T19:26:39;5.50;99.90
12335;DHT22;6233;51.560;9.986;2022-11-27T19:29:41;5.50;99.90
12335;DHT22;6233;51.560;9.986;2022-11-27T19:32:43;5.40;99.90
12335;DHT22;6233;51.560;9.986;2022-11-27T19:35:45;5.50;99.90
12335;DHT22;6233;51.560;9.986;2022-11-27T19:38:53;5.40;99.90
12335;DHT22;6233;51.560;9.986;2022-11-27T19:41:55;5.40;99.90
12335;DHT22;6233;51.560;9.986;2022-11-27T19:44:58;5.40;99.90
12335;DHT22;6233;51.560;9.986;2022-11-27T19:48:00;5.30;99.90
12335;DHT22;6233;51.560;9.986;2022-11-27T19:51:01;5.30;99.90
12335;DHT22;6233;51.560;9.986;2022-11-27T19:54:05;5.30;99.90
12335;DHT22;6233;51.560;9.986;2022-11-27T19:57:11;5.30;99.90
12335;DHT22;6233;51.560;9.986;2022-11-27T20:00:13;5.40;99.90
12335;DHT22;6233;51.560;9.986;2022-11-27T20:03:15;5.40;99.90
12335;DHT22;6233;51.560;9.986;2022-11-27T20:06:19;5.40;99.90
12335;DHT22;6233;51.560;9.986;2022-11-27T20:09:21;5.30;99.90
12335;DHT22;6233;51.560;9.986;2022-11-27T20:12:23;5.30;99.90
12335;DHT22;6233;51.560;9.986;2022-11-27T20:15:24;5.30;99.90
12335;DHT22;6233;51.560;9.986;2022-11-27T20:18:26;5.30;99.90
12335;DHT22;6233;51.560;9.986;2022-11-27T20:21:28;5.30;99.90
12335;DHT22;6233;51.560;9.986;2022-11-27T20:24:30;5.20;99.90
12335;DHT22;6233;51.560;9.986;2022-11-27T20:27:33;5.20;99.90
12335;DHT22;6233;51.560;9.986;2022-11-27T20:30:36;5.20;99.90
12335;DHT22;6233;51.560;9.986;2022-11-27T20:33:41;5.30;99.90
12335;DHT22;6233;51.560;9.986;2022-11-27T20:36:43;5.20;99.90
12335;DHT22;6233;51.560;9.986;2022-11-27T20:39:45;5.20;99.90
12335;DHT22;6233;51.560;9.986;2022-11-27T20:42:46;5.20;99.90
12335;DHT22;6233;51.560;9.986;2022-11-27T20:45:50;5.20;99.90
12335;DHT22;6233;51.560;9.986;2022-11-27T20:48:53;5.20;99.90
12335;DHT22;6233;51.560;9.986;2022-11-27T20:51:55;5.20;99.90
12335;DHT22;6233;51.560;9.986;2022-11-27T20:54:58;5.20;99.90
12335;DHT22;6233;51.560;9.986;2022-11-27T20:58:04;5.20;99.90
12335;DHT22;6233;51.560;9.986;2022-11-27T21:04:23;5.20;99.90
12335;DHT22;6233;51.560;9.986;2022-11-27T21:07:25;5.20;99.90
12335;DHT22;6233;51.560;9.986;2022-11-27T21:10:26;5.20;99.90
12335;DHT22;6233;51.560;9.986;2022-11-27T21:13:31;5.10;99.90
12335;DHT22;6233;51.560;9.986;2022-11-27T21:16:36;5.10;99.90
12335;DHT22;6233;51.560;9.986;2022-11-27T21:19:40;5.10;99.90
12335;DHT22;6233;51.560;9.986;2022-11-27T21:22:42;5.10;99.90
12335;DHT22;6233;51.560;9.986;2022-11-27T21:25:44;5.10;99.90
12335;DHT22;6233;51.560;9.986;2022-11-27T21:28:56;5.10;99.90
12335;DHT22;6233;51.560;9.986;2022-11-27T21:31:58;5.10;99.90
12335;DHT22;6233;51.560;9.986;2022-11-27T21:35:00;5.10;99.90
12335;DHT22;6233;51.560;9.986;2022-11-27T21:38:02;5.10;99.90
12335;DHT22;6233;51.560;9.986;2022-11-27T21:41:04;5.10;99.90
12335;DHT22;6233;51.560;9.986;2022-11-27T21:44:05;5.10;99.90
12335;DHT22;6233;51.560;9.986;2022-11-27T21:47:07;5.00;99.90
12335;DHT22;6233;51.560;9.986;2022-11-27T21:50:12;5.00;99.90
12335;DHT22;6233;51.560;9.986;2022-11-27T21:53:14;5.00;99.90
12335;DHT22;6233;51.560;9.986;2022-11-27T21:56:17;5.00;99.90
12335;DHT22;6233;51.560;9.986;2022-11-27T21:59:20;5.10;99.90